Flugplatz Unterschüpf

Für EDGU sind keine METAR/TAF Berichte vorhanden.
Es werden die Flugwettermeldungen vom Flugplatz Niederstetten Airport in 25 km Entfernung angezeigt.

Bericht für ETHN

vom 23.02. um 22:20 UTC

Wind 20 kt aus 330° in Böen 30 kt

Sichtweite 6000 m

Regen

bedeckt in 900 ft

Temperatur 6.0°C

Taupunkt 5.0°C

Luftfeuchtigkeit 93%

Luftdruck 1019 hPa

ETHN 232220Z 33020G30KT 6000 RA OVC009 06/05 Q1019 GRN
Keine Prognose (TAF) verfügbar.
Impressum